createdAt,value
2023-04-22T00:02:09.419Z,51.45
2023-04-22T00:04:38.107Z,51.38
2023-04-22T00:07:06.744Z,51.27
2023-04-22T00:09:35.993Z,51.08
2023-04-22T00:12:05.118Z,51.46
2023-04-22T00:14:34.797Z,51.31
2023-04-22T00:17:03.844Z,51.89
2023-04-22T00:19:32.281Z,51.75
2023-04-22T00:22:00.621Z,52.11
2023-04-22T00:24:29.136Z,51.89
2023-04-22T00:26:57.450Z,52.38
2023-04-22T00:29:26.395Z,52.64
2023-04-22T00:31:55.012Z,52.35
2023-04-22T00:34:23.630Z,52.66
2023-04-22T00:36:51.956Z,52.61
2023-04-22T00:39:20.333Z,53.09
2023-04-22T00:41:48.700Z,53.04
2023-04-22T00:44:17.868Z,53.19
2023-04-22T00:46:46.248Z,53.72
2023-04-22T00:49:15.681Z,53.97
2023-04-22T00:51:44.128Z,53.90
2023-04-22T00:54:12.613Z,53.89
2023-04-22T00:56:40.915Z,53.59
2023-04-22T00:59:10.191Z,53.72
2023-04-22T01:01:38.705Z,53.63
2023-04-22T01:04:07.118Z,53.95
2023-04-22T01:06:35.892Z,54.05
2023-04-22T01:09:04.726Z,54.05
2023-04-22T01:11:33.008Z,54.12
2023-04-22T01:14:01.392Z,54.22
2023-04-22T01:16:30.600Z,54.19
2023-04-22T01:18:58.917Z,54.23
2023-04-22T01:21:29.103Z,54.27
2023-04-22T01:23:57.746Z,54.40
2023-04-22T01:26:26.221Z,54.43
2023-04-22T01:28:54.616Z,54.56
2023-04-22T01:31:23.190Z,54.72
2023-04-22T01:33:51.865Z,54.52
2023-04-22T01:36:20.120Z,54.79
2023-04-22T01:38:48.588Z,54.79
2023-04-22T01:41:17.290Z,54.96
2023-04-22T01:43:45.736Z,55.20
2023-04-22T01:46:16.150Z,55.36
2023-04-22T01:48:49.793Z,55.73
2023-04-22T01:51:19.799Z,55.94
2023-04-22T01:53:48.345Z,56.12
2023-04-22T01:56:17.286Z,56.18
2023-04-22T01:58:45.543Z,56.31
2023-04-22T02:01:14.157Z,56.29
2023-04-22T02:03:42.674Z,56.43
2023-04-22T02:06:11.477Z,56.52
2023-04-22T02:08:39.748Z,56.51
2023-04-22T02:11:08.143Z,56.30
2023-04-22T02:13:37.550Z,56.42
2023-04-22T02:16:07.202Z,56.45
2023-04-22T02:18:35.674Z,56.54
2023-04-22T02:21:04.424Z,56.56
2023-04-22T02:23:32.811Z,56.42
2023-04-22T02:26:01.023Z,56.72
2023-04-22T02:28:29.372Z,56.98
2023-04-22T02:30:57.950Z,57.23
2023-04-22T02:33:26.370Z,57.21
2023-04-22T02:35:54.785Z,57.21
2023-04-22T02:38:23.429Z,57.42
2023-04-22T02:40:51.606Z,57.45
2023-04-22T02:43:20.238Z,57.57
2023-04-22T02:45:48.507Z,57.73
2023-04-22T02:48:16.965Z,58.01
2023-04-22T02:50:45.178Z,57.89
2023-04-22T02:53:13.515Z,57.83
2023-04-22T02:55:41.885Z,57.81
2023-04-22T02:58:10.453Z,57.74
2023-04-22T03:00:38.806Z,57.87
2023-04-22T03:03:07.289Z,57.88
2023-04-22T03:05:35.969Z,57.87
2023-04-22T03:08:04.427Z,58.04
2023-04-22T03:10:32.755Z,58.07
2023-04-22T03:13:00.983Z,58.11
2023-04-22T03:15:29.332Z,58.14
2023-04-22T03:17:57.685Z,58.30
2023-04-22T03:20:26.330Z,58.25
2023-04-22T03:22:55.124Z,58.35
2023-04-22T03:25:23.371Z,58.41
2023-04-22T03:27:51.667Z,58.39
2023-04-22T03:30:20.100Z,58.58
2023-04-22T03:32:48.476Z,58.64
2023-04-22T03:35:17.144Z,58.74
2023-04-22T03:37:45.416Z,58.76
2023-04-22T03:40:14.298Z,58.67
2023-04-22T03:42:42.601Z,58.90
2023-04-22T03:45:11.816Z,58.80
2023-04-22T03:47:42.782Z,58.86
2023-04-22T03:50:11.592Z,58.98
2023-04-22T03:52:40.196Z,58.85
2023-04-22T03:55:10.064Z,59.05
2023-04-22T03:57:38.324Z,59.10
2023-04-22T04:00:09.018Z,59.23
2023-04-22T04:02:37.379Z,59.23
2023-04-22T04:05:09.153Z,59.26
2023-04-22T04:07:37.671Z,59.32
2023-04-22T04:10:08.701Z,59.49
2023-04-22T04:12:37.266Z,59.35
2023-04-22T04:15:08.035Z,59.35
2023-04-22T04:17:36.506Z,59.40
2023-04-22T04:20:06.912Z,59.47
2023-04-22T04:22:35.506Z,59.36
2023-04-22T04:25:04.804Z,59.31
2023-04-22T04:27:33.180Z,59.32
2023-04-22T04:30:03.665Z,59.29
2023-04-22T04:32:33.686Z,59.53
2023-04-22T04:35:02.653Z,59.53
2023-04-22T04:37:30.953Z,59.42
2023-04-22T04:39:59.277Z,59.31
2023-04-22T04:42:29.838Z,59.00
2023-04-22T04:44:58.142Z,59.21
2023-04-22T04:47:27.762Z,59.10
2023-04-22T04:49:57.981Z,58.92
2023-04-22T04:52:26.442Z,59.01
2023-04-22T04:54:54.724Z,58.87
2023-04-22T04:57:23.022Z,58.75
2023-04-22T04:59:51.359Z,58.81
2023-04-22T05:02:19.930Z,58.76
2023-04-22T05:04:48.825Z,58.62
2023-04-22T05:07:17.211Z,58.81
2023-04-22T05:09:45.493Z,58.64
2023-04-22T05:12:14.634Z,58.48
2023-04-22T05:14:43.996Z,58.57
2023-04-22T05:17:12.330Z,58.19
2023-04-22T05:19:41.474Z,58.35
2023-04-22T05:22:10.794Z,57.94
2023-04-22T05:24:39.068Z,58.19
2023-04-22T05:27:07.689Z,58.07
2023-04-22T05:29:36.099Z,57.82
2023-04-22T05:32:04.711Z,57.86
2023-04-22T05:34:33.591Z,57.53
2023-04-22T05:37:03.174Z,57.70
2023-04-22T05:39:31.725Z,57.61
2023-04-22T05:42:00.206Z,57.58
2023-04-22T05:44:28.591Z,57.40
2023-04-22T05:46:56.974Z,57.53
2023-04-22T05:49:25.456Z,57.26
2023-04-22T05:51:53.805Z,57.54
2023-04-22T05:54:22.381Z,57.03
2023-04-22T05:56:51.062Z,57.13
2023-04-22T05:59:21.094Z,56.90
2023-04-22T06:01:50.520Z,56.89
2023-04-22T06:04:20.156Z,56.91
2023-04-22T06:06:49.280Z,56.75
2023-04-22T06:09:18.335Z,56.42
2023-04-22T06:11:49.578Z,56.77
2023-04-22T06:14:17.934Z,56.62
2023-04-22T06:16:46.342Z,56.26
2023-04-22T06:19:14.749Z,56.09
2023-04-22T06:21:43.538Z,56.53
2023-04-22T06:24:11.951Z,56.40
2023-04-22T06:26:40.878Z,56.05
2023-04-22T06:29:09.364Z,56.09
2023-04-22T06:31:37.653Z,55.94
2023-04-22T06:34:05.994Z,55.91
2023-04-22T06:36:36.801Z,55.57
2023-04-22T06:39:05.611Z,55.18
2023-04-22T06:41:34.057Z,55.08
2023-04-22T06:44:02.249Z,55.04
2023-04-22T06:46:30.872Z,54.78
2023-04-22T06:48:59.223Z,54.81
2023-04-22T06:51:27.565Z,54.57
2023-04-22T06:53:57.712Z,54.33
2023-04-22T06:56:26.247Z,54.34
2023-04-22T06:58:55.857Z,53.99
2023-04-22T07:01:24.462Z,54.00
2023-04-22T07:03:53.133Z,53.93
2023-04-22T07:06:21.484Z,53.68
2023-04-22T07:08:49.881Z,53.59
2023-04-22T07:11:18.647Z,53.43
2023-04-22T07:13:46.952Z,53.40
2023-04-22T07:16:15.580Z,53.39
2023-04-22T07:18:44.270Z,53.38
2023-04-22T07:21:12.523Z,53.07
2023-04-22T07:23:40.785Z,52.74
2023-04-22T07:26:09.362Z,52.65
2023-04-22T07:28:37.995Z,52.58
2023-04-22T07:31:06.520Z,52.31
2023-04-22T07:33:35.151Z,51.51
2023-04-22T07:36:04.002Z,51.06
2023-04-22T07:38:32.479Z,51.02
2023-04-22T07:41:00.992Z,50.93
2023-04-22T07:43:29.237Z,50.64
2023-04-22T07:45:57.716Z,47.42
2023-04-22T07:48:26.889Z,47.37
2023-04-22T07:50:55.451Z,46.91
2023-04-22T07:53:23.839Z,47.80
2023-04-22T07:55:52.280Z,45.77
2023-04-22T07:58:20.545Z,46.08
2023-04-22T08:00:48.891Z,45.59
2023-04-22T08:03:17.458Z,46.02
2023-04-22T08:05:46.031Z,45.70
2023-04-22T08:08:14.831Z,45.47
2023-04-22T08:10:43.255Z,43.95
2023-04-22T08:13:11.565Z,43.46
2023-04-22T08:15:39.883Z,43.33
2023-04-22T08:18:08.497Z,43.00
2023-04-22T08:20:36.878Z,42.70
2023-04-22T08:23:06.407Z,40.99
2023-04-22T08:25:35.351Z,41.29
2023-04-22T08:28:03.712Z,41.51
2023-04-22T08:30:32.071Z,41.32
2023-04-22T08:33:00.495Z,41.01
2023-04-22T08:35:28.927Z,40.80
2023-04-22T08:37:57.215Z,39.53
2023-04-22T08:40:26.196Z,37.68
2023-04-22T08:42:55.356Z,37.85
2023-04-22T08:45:24.676Z,37.41
2023-04-22T08:47:54.524Z,37.40
2023-04-22T08:50:22.887Z,35.75
2023-04-22T08:52:51.189Z,36.17
2023-04-22T08:55:20.045Z,36.25
2023-04-22T08:57:49.629Z,36.02
2023-04-22T09:00:19.332Z,35.41
2023-04-22T09:02:49.797Z,35.72
2023-04-22T09:05:19.108Z,35.00
2023-04-22T09:07:47.417Z,35.91
2023-04-22T09:10:16.086Z,33.35
2023-04-22T09:12:44.574Z,31.69
2023-04-22T09:15:13.392Z,33.46
2023-04-22T09:17:42.949Z,33.68
2023-04-22T09:20:12.430Z,33.57
2023-04-22T09:22:42.753Z,33.08
2023-04-22T09:25:17.529Z,33.70
2023-04-22T09:27:50.308Z,33.58
2023-04-22T09:30:19.928Z,33.73
2023-04-22T09:32:56.304Z,33.95
2023-04-22T09:35:28.645Z,31.85
2023-04-22T09:37:57.587Z,32.16
2023-04-22T09:40:26.456Z,32.74
2023-04-22T09:42:55.821Z,30.21
2023-04-22T09:45:32.458Z,31.71
2023-04-22T09:48:04.299Z,31.46
2023-04-22T09:50:32.600Z,32.00
2023-04-22T09:53:03.366Z,31.80
2023-04-22T09:55:34.291Z,29.82
2023-04-22T09:58:08.029Z,29.99
2023-04-22T10:00:39.774Z,29.62
2023-04-22T10:03:10.898Z,28.73
2023-04-22T10:05:40.915Z,29.53
2023-04-22T10:08:10.991Z,29.19
2023-04-22T10:10:40.154Z,29.02
2023-04-22T10:13:09.259Z,30.15
2023-04-22T10:15:40.408Z,30.49
2023-04-22T10:18:12.300Z,29.16
2023-04-22T10:20:41.326Z,29.59
2023-04-22T10:23:14.768Z,30.13
2023-04-22T10:25:43.229Z,30.36
2023-04-22T10:28:13.005Z,29.74
2023-04-22T10:30:41.716Z,29.50
2023-04-22T10:33:36.356Z,29.68
2023-04-22T10:36:09.404Z,29.46
2023-04-22T10:38:39.041Z,28.20
2023-04-22T10:41:07.668Z,28.70
2023-04-22T10:43:43.091Z,27.73
2023-04-22T10:46:41.961Z,26.64
2023-04-22T10:49:11.546Z,25.71
2023-04-22T10:51:40.285Z,26.19
2023-04-22T10:54:09.132Z,25.96
2023-04-22T10:57:02.309Z,25.89
2023-04-22T10:59:31.085Z,25.33
2023-04-22T11:02:02.003Z,26.51
2023-04-22T11:04:31.153Z,26.44
2023-04-22T11:07:14.352Z,25.89
2023-04-22T11:09:45.207Z,26.34
2023-04-22T11:12:44.513Z,26.47
2023-04-22T11:15:15.301Z,26.21
2023-04-22T11:17:45.416Z,25.84
2023-04-22T11:20:16.749Z,25.44
2023-04-22T11:22:46.221Z,24.15
2023-04-22T11:25:14.883Z,24.67
2023-04-22T11:27:43.626Z,24.59
2023-04-22T11:30:15.715Z,24.98
2023-04-22T11:32:48.852Z,24.42
2023-04-22T11:35:17.471Z,24.05
2023-04-22T11:37:47.446Z,23.17
2023-04-22T11:40:29.905Z,22.31
2023-04-22T11:42:58.975Z,22.57
2023-04-22T11:45:28.232Z,22.60
2023-04-22T11:47:56.892Z,22.73
2023-04-22T11:50:28.743Z,22.52
2023-04-22T11:53:00.455Z,22.18
2023-04-22T11:55:30.499Z,21.18
2023-04-22T11:58:00.539Z,21.19
2023-04-22T12:00:33.902Z,21.08
2023-04-22T12:03:04.430Z,21.10
2023-04-22T12:05:38.248Z,20.41
2023-04-22T12:08:11.371Z,20.27
2023-04-22T12:10:44.617Z,21.34
2023-04-22T12:13:18.683Z,20.94
2023-04-22T12:15:46.242Z,21.20
2023-04-22T12:18:16.208Z,21.67
2023-04-22T12:20:44.759Z,20.97
2023-04-22T12:23:14.308Z,21.45
2023-04-22T12:25:43.409Z,21.59
2023-04-22T12:28:12.921Z,21.48
2023-04-22T12:30:41.270Z,20.90
2023-04-22T12:33:10.340Z,20.97
2023-04-22T12:35:38.997Z,20.45
2023-04-22T12:38:07.658Z,19.99
2023-04-22T12:40:36.509Z,20.29
2023-04-22T12:43:05.360Z,20.54
2023-04-22T12:45:33.926Z,20.35
2023-04-22T12:48:02.269Z,20.13
2023-04-22T12:50:30.585Z,20.03
2023-04-22T12:52:59.158Z,19.85
2023-04-22T12:55:27.773Z,19.32
2023-04-22T12:57:56.733Z,20.06
2023-04-22T13:00:25.890Z,20.45
2023-04-22T13:02:54.311Z,20.64
2023-04-22T13:05:22.761Z,20.60
2023-04-22T13:08:05.868Z,20.49
2023-04-22T13:10:36.394Z,20.48
2023-04-22T13:13:17.947Z,20.63
2023-04-22T13:15:52.473Z,20.38
2023-04-22T13:18:22.028Z,20.22
2023-04-22T13:20:51.104Z,20.64
2023-04-22T13:23:20.942Z,20.28
2023-04-22T13:25:49.905Z,20.04
2023-04-22T13:28:18.576Z,19.85
2023-04-22T13:30:47.103Z,20.32
2023-04-22T13:33:15.545Z,20.83
2023-04-22T13:35:43.824Z,21.09
2023-04-22T13:38:12.088Z,21.38
2023-04-22T13:40:40.786Z,21.67
2023-04-22T13:43:09.910Z,21.43
2023-04-22T13:45:38.241Z,20.67
2023-04-22T13:48:06.946Z,20.89
2023-04-22T13:50:35.388Z,20.10
2023-04-22T13:53:04.302Z,20.66
2023-04-22T13:55:33.159Z,20.75
2023-04-22T13:58:01.585Z,20.72
2023-04-22T14:00:30.078Z,20.23
2023-04-22T14:02:58.744Z,20.06
2023-04-22T14:05:27.208Z,19.85
2023-04-22T14:07:56.956Z,19.74
2023-04-22T14:10:27.901Z,19.89
2023-04-22T14:12:57.187Z,20.17
2023-04-22T14:15:26.237Z,20.48
2023-04-22T14:17:54.645Z,20.39
2023-04-22T14:20:24.874Z,20.06
2023-04-22T14:22:53.503Z,20.00
2023-04-22T14:25:22.414Z,20.55
2023-04-22T14:27:50.865Z,20.31
2023-04-22T14:30:21.411Z,20.92
2023-04-22T14:32:50.275Z,21.05
2023-04-22T14:35:19.316Z,21.11
2023-04-22T14:37:47.737Z,20.62
2023-04-22T14:40:16.910Z,20.36
2023-04-22T14:42:46.421Z,19.95
2023-04-22T14:45:15.062Z,20.41
2023-04-22T14:47:43.392Z,20.93
2023-04-22T14:50:12.298Z,20.96
2023-04-22T14:52:41.453Z,21.01
2023-04-22T14:55:19.887Z,20.64
2023-04-22T14:57:52.667Z,20.21
2023-04-22T15:00:21.318Z,20.45
2023-04-22T15:02:50.146Z,21.25
2023-04-22T15:05:18.807Z,21.01
2023-04-22T15:07:47.473Z,19.87
2023-04-22T15:10:16.508Z,19.91
2023-04-22T15:12:45.239Z,19.22
2023-04-22T15:15:15.412Z,20.53
2023-04-22T15:17:44.258Z,20.91
2023-04-22T15:20:14.510Z,20.00
2023-04-22T15:22:43.151Z,19.60
2023-04-22T15:25:12.096Z,18.72
2023-04-22T15:27:40.521Z,19.40
2023-04-22T15:30:10.451Z,19.67
2023-04-22T15:32:39.213Z,19.48
2023-04-22T15:35:08.852Z,20.04
2023-04-22T15:37:37.128Z,20.02
2023-04-22T15:40:09.381Z,19.62
2023-04-22T15:42:37.989Z,19.49
2023-04-22T15:45:08.602Z,19.58
2023-04-22T15:47:36.975Z,18.73
2023-04-22T15:50:08.260Z,18.81
2023-04-22T15:52:38.257Z,19.42
2023-04-22T15:55:07.934Z,18.84
2023-04-22T15:57:36.579Z,19.30
2023-04-22T16:00:12.767Z,18.85
2023-04-22T16:02:44.074Z,18.88
2023-04-22T16:05:14.041Z,18.66
2023-04-22T16:07:42.465Z,18.93
2023-04-22T16:10:11.820Z,18.63
2023-04-22T16:12:41.304Z,18.54
2023-04-22T16:15:11.137Z,17.90
2023-04-22T16:17:43.212Z,17.92
2023-04-22T16:20:12.358Z,17.89
2023-04-22T16:22:40.839Z,18.24
2023-04-22T16:25:10.414Z,18.26
2023-04-22T16:27:38.957Z,18.72
2023-04-22T16:30:09.221Z,19.10
2023-04-22T16:32:37.559Z,19.02
2023-04-22T16:35:08.728Z,18.99
2023-04-22T16:37:37.071Z,18.88
2023-04-22T16:40:07.328Z,19.15
2023-04-22T16:42:35.839Z,19.51
2023-04-22T16:45:05.992Z,19.89
2023-04-22T16:47:34.683Z,20.34
2023-04-22T16:50:03.298Z,20.77
2023-04-22T16:52:31.892Z,21.06
2023-04-22T16:55:00.451Z,21.45
2023-04-22T16:57:28.794Z,22.10
2023-04-22T16:59:57.224Z,22.69
2023-04-22T17:02:25.903Z,23.23
2023-04-22T17:04:54.352Z,23.73
2023-04-22T17:07:22.703Z,24.32
2023-04-22T17:09:51.259Z,24.51
2023-04-22T17:12:19.608Z,24.73
2023-04-22T17:14:47.858Z,25.29
2023-04-22T17:17:16.215Z,25.49
2023-04-22T17:19:44.885Z,25.96
2023-04-22T17:22:13.142Z,26.41
2023-04-22T17:24:41.530Z,27.02
2023-04-22T17:27:10.028Z,27.52
2023-04-22T17:29:38.521Z,27.47
2023-04-22T17:32:07.285Z,27.54
2023-04-22T17:34:35.820Z,28.07
2023-04-22T17:37:04.375Z,28.27
2023-04-22T17:39:32.858Z,28.46
2023-04-22T17:42:01.892Z,28.68
2023-04-22T17:44:31.151Z,28.94
2023-04-22T17:46:59.499Z,29.50
2023-04-22T17:49:27.967Z,29.80
2023-04-22T17:51:56.392Z,30.34
2023-04-22T17:54:25.318Z,30.46
2023-04-22T17:56:53.608Z,30.56
2023-04-22T17:59:22.526Z,30.86
2023-04-22T18:01:50.973Z,31.16
2023-04-22T18:04:19.354Z,31.25
2023-04-22T18:06:47.688Z,31.63
2023-04-22T18:09:16.694Z,31.99
2023-04-22T18:11:45.221Z,32.40
2023-04-22T18:14:13.687Z,32.39
2023-04-22T18:16:42.097Z,32.49
2023-04-22T18:19:10.852Z,32.86
2023-04-22T18:21:43.986Z,33.29
2023-04-22T18:24:18.668Z,33.52
2023-04-22T18:26:48.244Z,33.53
2023-04-22T18:29:16.521Z,34.25
2023-04-22T18:31:45.947Z,34.65
2023-04-22T18:34:15.231Z,34.83
2023-04-22T18:36:43.508Z,35.01
2023-04-22T18:39:12.081Z,35.49
2023-04-22T18:41:42.207Z,35.91
2023-04-22T18:44:10.749Z,36.36
2023-04-22T18:46:39.007Z,36.85
2023-04-22T18:49:07.250Z,36.89
2023-04-22T18:51:35.695Z,37.31
2023-04-22T18:54:04.970Z,37.66
2023-04-22T18:56:33.781Z,37.83
2023-04-22T18:59:02.218Z,37.87
2023-04-22T19:01:30.736Z,38.33
2023-04-22T19:04:01.134Z,38.33
2023-04-22T19:06:29.781Z,38.51
2023-04-22T19:08:58.349Z,38.63
2023-04-22T19:11:26.606Z,38.43
2023-04-22T19:13:55.033Z,38.71
2023-04-22T19:16:26.244Z,38.92
2023-04-22T19:18:55.212Z,38.83
2023-04-22T19:21:23.507Z,38.97
2023-04-22T19:23:52.406Z,39.40
2023-04-22T19:26:21.379Z,39.77
2023-04-22T19:28:49.605Z,40.02
2023-04-22T19:31:18.386Z,40.20
2023-04-22T19:33:48.907Z,40.33
2023-04-22T19:36:17.698Z,40.16
2023-04-22T19:38:46.048Z,40.06
2023-04-22T19:41:14.347Z,39.97
2023-04-22T19:43:42.990Z,40.27
2023-04-22T19:46:11.889Z,40.09
2023-04-22T19:48:41.341Z,40.34
2023-04-22T19:51:10.845Z,40.71
2023-04-22T19:53:40.678Z,40.54
2023-04-22T19:56:09.964Z,40.89
2023-04-22T19:58:39.138Z,40.81
2023-04-22T20:01:08.499Z,40.71
2023-04-22T20:03:37.956Z,40.78
2023-04-22T20:06:07.330Z,40.69
2023-04-22T20:08:35.755Z,40.99
2023-04-22T20:11:04.702Z,40.78
2023-04-22T20:13:33.433Z,41.29
2023-04-22T20:16:03.209Z,41.64
2023-04-22T20:18:32.502Z,41.79
2023-04-22T20:21:00.973Z,41.81
2023-04-22T20:23:29.401Z,41.71
2023-04-22T20:25:58.403Z,42.04
2023-04-22T20:28:43.924Z,42.36
2023-04-22T20:31:12.956Z,42.17
2023-04-22T20:33:42.190Z,42.41
2023-04-22T20:36:11.151Z,42.62
2023-04-22T20:38:39.936Z,42.78
2023-04-22T20:41:09.497Z,43.05
2023-04-22T20:43:38.086Z,43.25
2023-04-22T20:46:06.915Z,43.39
2023-04-22T20:48:35.192Z,43.37
2023-04-22T20:51:04.130Z,43.49
2023-04-22T20:53:32.407Z,43.55
2023-04-22T20:56:00.740Z,44.08
2023-04-22T20:58:29.048Z,44.20
2023-04-22T21:00:57.510Z,44.39
2023-04-22T21:03:28.126Z,44.82
2023-04-22T21:05:58.082Z,45.01
2023-04-22T21:08:26.936Z,44.79
2023-04-22T21:10:56.305Z,44.95
2023-04-22T21:13:25.681Z,44.96
2023-04-22T21:15:58.250Z,45.13
2023-04-22T21:18:28.435Z,45.30
2023-04-22T21:20:57.482Z,45.50
2023-04-22T21:23:26.414Z,45.57
2023-04-22T21:25:55.964Z,45.98
2023-04-22T21:28:25.177Z,46.19
2023-04-22T21:30:54.898Z,46.24
2023-04-22T21:33:24.522Z,46.26
2023-04-22T21:35:52.982Z,46.58
2023-04-22T21:38:21.426Z,46.91
2023-04-22T21:40:49.833Z,47.22
2023-04-22T21:43:18.157Z,47.34
2023-04-22T21:45:46.387Z,47.36
2023-04-22T21:48:15.113Z,47.44
2023-04-22T21:50:43.643Z,47.92
2023-04-22T21:53:12.099Z,48.36
2023-04-22T21:55:40.311Z,48.53
2023-04-22T21:58:08.792Z,49.03
2023-04-22T22:00:38.226Z,49.13
2023-04-22T22:03:06.643Z,49.08
2023-04-22T22:05:36.534Z,49.09
2023-04-22T22:08:05.102Z,49.16
2023-04-22T22:10:33.875Z,49.29
2023-04-22T22:13:02.221Z,49.32
2023-04-22T22:15:30.774Z,49.32
2023-04-22T22:18:00.721Z,49.47
2023-04-22T22:20:29.551Z,49.59
2023-04-22T22:22:57.782Z,49.95
2023-04-22T22:25:26.418Z,49.98
2023-04-22T22:27:54.889Z,50.08
2023-04-22T22:30:23.350Z,50.02
2023-04-22T22:32:51.672Z,50.49
2023-04-22T22:35:20.607Z,50.63
2023-04-22T22:37:49.018Z,50.68
2023-04-22T22:40:17.493Z,50.86
2023-04-22T22:42:46.020Z,51.12
2023-04-22T22:45:14.306Z,51.23
2023-04-22T22:47:43.473Z,51.55
2023-04-22T22:50:12.085Z,51.52
2023-04-22T22:52:40.490Z,51.59
2023-04-22T22:55:09.730Z,51.70
2023-04-22T22:57:38.129Z,51.70
2023-04-22T23:00:10.441Z,51.89
2023-04-22T23:02:38.911Z,51.96
2023-04-22T23:05:10.852Z,52.25
2023-04-22T23:07:39.386Z,52.17
2023-04-22T23:10:10.012Z,52.13
2023-04-22T23:12:38.351Z,52.72
2023-04-22T23:15:08.508Z,52.61
2023-04-22T23:17:36.957Z,52.39
2023-04-22T23:20:09.230Z,52.53
2023-04-22T23:22:39.115Z,52.95
2023-04-22T23:25:10.406Z,53.03
2023-04-22T23:27:40.042Z,52.96
2023-04-22T23:30:10.518Z,52.97
2023-04-22T23:32:40.558Z,53.37
2023-04-22T23:35:12.084Z,53.39
2023-04-22T23:37:44.293Z,54.01
2023-04-22T23:40:13.512Z,54.17
2023-04-22T23:42:41.786Z,54.04
2023-04-22T23:45:12.083Z,54.05
2023-04-22T23:47:40.712Z,54.16
2023-04-22T23:50:11.529Z,54.86
2023-04-22T23:52:40.850Z,55.17
2023-04-22T23:55:13.302Z,55.63
2023-04-22T23:57:42.778Z,55.79
